Terminal Aerodrome Forecast
Issued by NWS Melbourne, FL

Home | Current Version | Previous Version | Text Only | Print | Product List | Glossary On
Versions: 1 2 3 4 5 6 7 8 9 10 11 12 13 14 15 16
000
FTUS42 KMLB 241700
TAFVRB
TAF
KVRB 241736Z 2418/2518 14006KT P6SM VCTS SCT025CB BKN060
      TEMPO 2418/2420 3SM SHRA BKN030 OVC050
     FM242000 14008KT P6SM VCSH BKN035
     FM250000 15006KT P6SM FEW050 SCT250
     FM250400 18002KT P6SM SCT250
     FM251200 21005KT P6SM SCT040=

USA.gov is the U.S. government's official web portal to all federal, state and local government web resources and services.